Terminal Aerodrome Forecast
Issued by NWS

Current Version | Previous Version | Text Only | Print | Product List | Glossary On
Versions: 1 2 3 4 5 6 7 8 9 10 11 12 13 14 15 16 17 18 19 20 21 22 23 24 25 26 27 28 29 30 31 32 33 34 35 36 37 38 39 40
000
FTUS45 KGJT 311246 AAA
TAFEGE
TAF AMD
KEGE 311246Z 3113/0112 00000KT 3SM BR FEW003 BKN009 OVC015
      TEMPO 3113/3115 1/2SM -SN FG VV001
     FM311800 18003KT P6SM VCSH SCT025 OVC040
     FM010000 VRB03KT P6SM VCFG SCT015 BKN050
      AMD LTD TO CLD VIS AND WIND TIL 311400=

USA.gov is the U.S. government's official web portal to all federal, state and local government web resources and services.